sensor_id;sensor_type;location;lat;lon;timestamp;P1;durP1;ratioP1;P2;durP2;ratioP2
55879;SDS011;41802;51.564;-1.838;2023-04-06T00:01:50;13.10;;;4.87;;
55879;SDS011;41802;51.564;-1.838;2023-04-06T00:04:18;12.23;;;4.63;;
55879;SDS011;41802;51.564;-1.838;2023-04-06T00:06:46;11.30;;;4.57;;
55879;SDS011;41802;51.564;-1.838;2023-04-06T00:09:15;13.90;;;4.35;;
55879;SDS011;41802;51.564;-1.838;2023-04-06T00:11:43;9.95;;;4.07;;
55879;SDS011;41802;51.564;-1.838;2023-04-06T00:14:10;13.27;;;4.97;;
55879;SDS011;41802;51.564;-1.838;2023-04-06T00:16:38;10.02;;;4.20;;
55879;SDS011;41802;51.564;-1.838;2023-04-06T00:19:06;10.57;;;4.18;;
55879;SDS011;41802;51.564;-1.838;2023-04-06T00:21:33;10.50;;;4.47;;
55879;SDS011;41802;51.564;-1.838;2023-04-06T00:24:01;10.13;;;4.20;;
55879;SDS011;41802;51.564;-1.838;2023-04-06T00:26:31;10.50;;;4.20;;
55879;SDS011;41802;51.564;-1.838;2023-04-06T00:28:59;10.15;;;3.45;;
55879;SDS011;41802;51.564;-1.838;2023-04-06T00:31:27;11.43;;;4.70;;
55879;SDS011;41802;51.564;-1.838;2023-04-06T00:33:55;11.25;;;4.35;;
55879;SDS011;41802;51.564;-1.838;2023-04-06T00:36:22;10.05;;;4.40;;
55879;SDS011;41802;51.564;-1.838;2023-04-06T00:38:50;10.87;;;3.90;;
55879;SDS011;41802;51.564;-1.838;2023-04-06T00:41:17;9.57;;;3.83;;
55879;SDS011;41802;51.564;-1.838;2023-04-06T00:43:48;10.00;;;4.35;;
55879;SDS011;41802;51.564;-1.838;2023-04-06T00:46:16;10.98;;;4.05;;
55879;SDS011;41802;51.564;-1.838;2023-04-06T00:48:43;10.18;;;4.05;;
55879;SDS011;41802;51.564;-1.838;2023-04-06T00:51:11;8.80;;;3.17;;
55879;SDS011;41802;51.564;-1.838;2023-04-06T00:53:39;13.05;;;4.55;;
55879;SDS011;41802;51.564;-1.838;2023-04-06T00:56:06;10.70;;;4.25;;
55879;SDS011;41802;51.564;-1.838;2023-04-06T00:58:36;12.82;;;4.18;;
55879;SDS011;41802;51.564;-1.838;2023-04-06T01:01:06;12.68;;;4.97;;
55879;SDS011;41802;51.564;-1.838;2023-04-06T01:03:34;12.20;;;4.27;;
55879;SDS011;41802;51.564;-1.838;2023-04-06T01:06:01;8.10;;;3.08;;
55879;SDS011;41802;51.564;-1.838;2023-04-06T01:08:29;11.45;;;4.93;;
55879;SDS011;41802;51.564;-1.838;2023-04-06T01:10:58;10.60;;;5.03;;
55879;SDS011;41802;51.564;-1.838;2023-04-06T01:13:27;11.68;;;4.32;;
55879;SDS011;41802;51.564;-1.838;2023-04-06T01:15:54;11.43;;;4.67;;
55879;SDS011;41802;51.564;-1.838;2023-04-06T01:18:26;11.82;;;4.75;;
55879;SDS011;41802;51.564;-1.838;2023-04-06T01:20:54;12.20;;;5.00;;
55879;SDS011;41802;51.564;-1.838;2023-04-06T01:23:23;13.20;;;5.05;;
55879;SDS011;41802;51.564;-1.838;2023-04-06T01:25:51;11.40;;;4.55;;
55879;SDS011;41802;51.564;-1.838;2023-04-06T01:28:18;10.70;;;4.20;;
55879;SDS011;41802;51.564;-1.838;2023-04-06T01:30:46;10.65;;;4.38;;
55879;SDS011;41802;51.564;-1.838;2023-04-06T01:33:14;12.00;;;3.97;;
55879;SDS011;41802;51.564;-1.838;2023-04-06T01:35:42;10.82;;;4.80;;
55879;SDS011;41802;51.564;-1.838;2023-04-06T01:38:10;11.27;;;4.88;;
55879;SDS011;41802;51.564;-1.838;2023-04-06T01:40:39;12.47;;;4.47;;
55879;SDS011;41802;51.564;-1.838;2023-04-06T01:43:07;9.98;;;4.38;;
55879;SDS011;41802;51.564;-1.838;2023-04-06T01:45:34;11.35;;;4.30;;
55879;SDS011;41802;51.564;-1.838;2023-04-06T01:48:02;11.38;;;4.00;;
55879;SDS011;41802;51.564;-1.838;2023-04-06T01:50:30;13.77;;;4.55;;
55879;SDS011;41802;51.564;-1.838;2023-04-06T01:52:57;12.00;;;4.20;;
55879;SDS011;41802;51.564;-1.838;2023-04-06T01:55:25;11.02;;;4.60;;
55879;SDS011;41802;51.564;-1.838;2023-04-06T01:57:54;12.88;;;4.63;;
55879;SDS011;41802;51.564;-1.838;2023-04-06T02:00:22;11.45;;;4.22;;
55879;SDS011;41802;51.564;-1.838;2023-04-06T02:02:49;11.90;;;5.38;;
55879;SDS011;41802;51.564;-1.838;2023-04-06T02:05:17;10.93;;;4.50;;
55879;SDS011;41802;51.564;-1.838;2023-04-06T02:07:44;13.68;;;5.50;;
55879;SDS011;41802;51.564;-1.838;2023-04-06T02:10:12;10.10;;;4.00;;
55879;SDS011;41802;51.564;-1.838;2023-04-06T02:12:40;12.20;;;4.28;;
55879;SDS011;41802;51.564;-1.838;2023-04-06T02:15:10;12.20;;;4.97;;
55879;SDS011;41802;51.564;-1.838;2023-04-06T02:17:39;12.37;;;5.40;;
55879;SDS011;41802;51.564;-1.838;2023-04-06T02:20:07;14.70;;;4.97;;
55879;SDS011;41802;51.564;-1.838;2023-04-06T02:22:35;11.60;;;4.68;;
55879;SDS011;41802;51.564;-1.838;2023-04-06T02:25:03;13.68;;;5.30;;
55879;SDS011;41802;51.564;-1.838;2023-04-06T02:27:30;15.43;;;5.18;;
55879;SDS011;41802;51.564;-1.838;2023-04-06T02:29:58;12.73;;;5.53;;
55879;SDS011;41802;51.564;-1.838;2023-04-06T02:32:27;12.32;;;4.65;;
55879;SDS011;41802;51.564;-1.838;2023-04-06T02:34:55;11.95;;;5.35;;
55879;SDS011;41802;51.564;-1.838;2023-04-06T02:37:22;11.35;;;4.63;;
55879;SDS011;41802;51.564;-1.838;2023-04-06T02:39:50;11.75;;;4.43;;
55879;SDS011;41802;51.564;-1.838;2023-04-06T02:42:18;13.77;;;5.47;;
55879;SDS011;41802;51.564;-1.838;2023-04-06T02:44:45;13.52;;;4.78;;
55879;SDS011;41802;51.564;-1.838;2023-04-06T02:47:13;11.15;;;4.88;;
55879;SDS011;41802;51.564;-1.838;2023-04-06T02:49:42;12.52;;;4.85;;
55879;SDS011;41802;51.564;-1.838;2023-04-06T02:52:13;10.27;;;4.57;;
55879;SDS011;41802;51.564;-1.838;2023-04-06T02:54:41;13.73;;;5.13;;
55879;SDS011;41802;51.564;-1.838;2023-04-06T02:57:09;13.90;;;5.20;;
55879;SDS011;41802;51.564;-1.838;2023-04-06T02:59:36;13.82;;;4.78;;
55879;SDS011;41802;51.564;-1.838;2023-04-06T03:02:04;12.30;;;4.82;;
55879;SDS011;41802;51.564;-1.838;2023-04-06T03:04:32;13.27;;;5.40;;
55879;SDS011;41802;51.564;-1.838;2023-04-06T03:07:01;10.77;;;4.50;;
55879;SDS011;41802;51.564;-1.838;2023-04-06T03:09:28;11.80;;;5.22;;
55879;SDS011;41802;51.564;-1.838;2023-04-06T03:11:56;13.57;;;5.05;;
55879;SDS011;41802;51.564;-1.838;2023-04-06T03:14:24;10.40;;;4.05;;
55879;SDS011;41802;51.564;-1.838;2023-04-06T03:16:52;10.43;;;3.97;;
55879;SDS011;41802;51.564;-1.838;2023-04-06T03:19:20;11.53;;;4.77;;
55879;SDS011;41802;51.564;-1.838;2023-04-06T03:21:47;10.45;;;4.22;;
55879;SDS011;41802;51.564;-1.838;2023-04-06T03:24:16;12.32;;;3.88;;
55879;SDS011;41802;51.564;-1.838;2023-04-06T03:26:44;11.18;;;3.90;;
55879;SDS011;41802;51.564;-1.838;2023-04-06T03:29:11;9.82;;;3.47;;
55879;SDS011;41802;51.564;-1.838;2023-04-06T03:31:39;9.23;;;2.93;;
55879;SDS011;41802;51.564;-1.838;2023-04-06T03:34:07;7.82;;;2.58;;
55879;SDS011;41802;51.564;-1.838;2023-04-06T03:36:35;10.02;;;3.65;;
55879;SDS011;41802;51.564;-1.838;2023-04-06T03:39:02;9.40;;;3.10;;
55879;SDS011;41802;51.564;-1.838;2023-04-06T03:41:32;8.52;;;3.15;;
55879;SDS011;41802;51.564;-1.838;2023-04-06T03:43:59;9.67;;;2.93;;
55879;SDS011;41802;51.564;-1.838;2023-04-06T03:46:27;9.40;;;2.80;;
55879;SDS011;41802;51.564;-1.838;2023-04-06T03:48:54;6.20;;;1.92;;
55879;SDS011;41802;51.564;-1.838;2023-04-06T03:51:22;6.95;;;2.50;;
55879;SDS011;41802;51.564;-1.838;2023-04-06T03:53:50;5.80;;;1.70;;
55879;SDS011;41802;51.564;-1.838;2023-04-06T03:56:17;6.77;;;1.43;;
55879;SDS011;41802;51.564;-1.838;2023-04-06T03:58:47;5.40;;;1.42;;
55879;SDS011;41802;51.564;-1.838;2023-04-06T04:01:17;5.30;;;1.27;;
55879;SDS011;41802;51.564;-1.838;2023-04-06T04:03:44;5.32;;;1.55;;
55879;SDS011;41802;51.564;-1.838;2023-04-06T04:06:15;5.45;;;1.33;;
55879;SDS011;41802;51.564;-1.838;2023-04-06T04:08:43;5.87;;;1.73;;
55879;SDS011;41802;51.564;-1.838;2023-04-06T04:11:11;5.20;;;1.33;;
55879;SDS011;41802;51.564;-1.838;2023-04-06T04:13:38;8.65;;;1.80;;
55879;SDS011;41802;51.564;-1.838;2023-04-06T04:16:07;6.60;;;1.27;;
55879;SDS011;41802;51.564;-1.838;2023-04-06T04:18:35;5.20;;;1.30;;
55879;SDS011;41802;51.564;-1.838;2023-04-06T04:21:03;5.33;;;1.00;;
55879;SDS011;41802;51.564;-1.838;2023-04-06T04:23:30;5.78;;;1.48;;
55879;SDS011;41802;51.564;-1.838;2023-04-06T04:25:58;4.93;;;1.60;;
55879;SDS011;41802;51.564;-1.838;2023-04-06T04:28:26;5.32;;;1.23;;
55879;SDS011;41802;51.564;-1.838;2023-04-06T04:30:53;5.25;;;1.65;;
55879;SDS011;41802;51.564;-1.838;2023-04-06T04:33:22;5.37;;;1.10;;
55879;SDS011;41802;51.564;-1.838;2023-04-06T04:35:50;5.20;;;1.02;;
55879;SDS011;41802;51.564;-1.838;2023-04-06T04:38:18;4.38;;;0.85;;
55879;SDS011;41802;51.564;-1.838;2023-04-06T04:40:45;5.57;;;1.10;;
55879;SDS011;41802;51.564;-1.838;2023-04-06T04:43:13;4.40;;;0.88;;
55879;SDS011;41802;51.564;-1.838;2023-04-06T04:45:41;4.00;;;0.70;;
55879;SDS011;41802;51.564;-1.838;2023-04-06T04:48:09;6.00;;;0.90;;
55879;SDS011;41802;51.564;-1.838;2023-04-06T04:50:39;7.40;;;1.10;;
55879;SDS011;41802;51.564;-1.838;2023-04-06T04:53:07;5.15;;;1.27;;
55879;SDS011;41802;51.564;-1.838;2023-04-06T04:55:35;4.95;;;1.10;;
55879;SDS011;41802;51.564;-1.838;2023-04-06T04:58:02;5.47;;;1.30;;
55879;SDS011;41802;51.564;-1.838;2023-04-06T05:00:30;8.02;;;1.35;;
55879;SDS011;41802;51.564;-1.838;2023-04-06T05:02:58;6.68;;;1.65;;
55879;SDS011;41802;51.564;-1.838;2023-04-06T05:05:25;10.15;;;2.00;;
55879;SDS011;41802;51.564;-1.838;2023-04-06T05:07:54;6.43;;;1.58;;
55879;SDS011;41802;51.564;-1.838;2023-04-06T05:10:22;7.20;;;1.70;;
55879;SDS011;41802;51.564;-1.838;2023-04-06T05:12:49;7.47;;;1.90;;
55879;SDS011;41802;51.564;-1.838;2023-04-06T05:15:17;10.27;;;1.15;;
55879;SDS011;41802;51.564;-1.838;2023-04-06T05:17:46;9.52;;;1.92;;
55879;SDS011;41802;51.564;-1.838;2023-04-06T05:20:14;6.68;;;1.52;;
55879;SDS011;41802;51.564;-1.838;2023-04-06T05:22:42;7.10;;;1.73;;
55879;SDS011;41802;51.564;-1.838;2023-04-06T05:25:11;10.48;;;1.15;;
55879;SDS011;41802;51.564;-1.838;2023-04-06T05:27:39;10.90;;;1.27;;
55879;SDS011;41802;51.564;-1.838;2023-04-06T05:30:07;6.72;;;1.20;;
55879;SDS011;41802;51.564;-1.838;2023-04-06T05:32:35;7.95;;;0.93;;
55879;SDS011;41802;51.564;-1.838;2023-04-06T05:35:03;5.93;;;0.87;;
55879;SDS011;41802;51.564;-1.838;2023-04-06T05:37:31;8.35;;;1.10;;
55879;SDS011;41802;51.564;-1.838;2023-04-06T05:39:59;6.60;;;0.80;;
55879;SDS011;41802;51.564;-1.838;2023-04-06T05:42:28;6.47;;;0.63;;
55879;SDS011;41802;51.564;-1.838;2023-04-06T05:45:03;8.95;;;0.75;;
55879;SDS011;41802;51.564;-1.838;2023-04-06T05:47:31;8.80;;;2.00;;
55879;SDS011;41802;51.564;-1.838;2023-04-06T05:49:59;6.03;;;1.05;;
55879;SDS011;41802;51.564;-1.838;2023-04-06T05:52:27;6.90;;;0.80;;
55879;SDS011;41802;51.564;-1.838;2023-04-06T05:54:55;4.93;;;0.93;;
55879;SDS011;41802;51.564;-1.838;2023-04-06T05:57:22;5.93;;;0.82;;
55879;SDS011;41802;51.564;-1.838;2023-04-06T05:59:51;8.50;;;0.73;;
55879;SDS011;41802;51.564;-1.838;2023-04-06T06:02:19;7.28;;;0.90;;
55879;SDS011;41802;51.564;-1.838;2023-04-06T06:04:47;6.80;;;0.60;;
55879;SDS011;41802;51.564;-1.838;2023-04-06T06:07:15;12.98;;;0.95;;
55879;SDS011;41802;51.564;-1.838;2023-04-06T06:09:42;6.75;;;1.17;;
55879;SDS011;41802;51.564;-1.838;2023-04-06T06:12:10;6.23;;;0.77;;
55879;SDS011;41802;51.564;-1.838;2023-04-06T06:14:40;13.15;;;1.23;;
55879;SDS011;41802;51.564;-1.838;2023-04-06T06:17:09;4.72;;;0.90;;
55879;SDS011;41802;51.564;-1.838;2023-04-06T06:19:37;9.95;;;1.00;;
55879;SDS011;41802;51.564;-1.838;2023-04-06T06:22:04;8.02;;;1.00;;
55879;SDS011;41802;51.564;-1.838;2023-04-06T06:24:33;7.57;;;0.70;;
55879;SDS011;41802;51.564;-1.838;2023-04-06T06:27:01;11.57;;;1.58;;
55879;SDS011;41802;51.564;-1.838;2023-04-06T06:29:29;8.48;;;1.38;;
55879;SDS011;41802;51.564;-1.838;2023-04-06T06:31:56;13.38;;;1.52;;
55879;SDS011;41802;51.564;-1.838;2023-04-06T06:34:27;7.13;;;1.05;;
55879;SDS011;41802;51.564;-1.838;2023-04-06T06:36:54;9.10;;;1.23;;
55879;SDS011;41802;51.564;-1.838;2023-04-06T06:39:22;11.02;;;1.30;;
55879;SDS011;41802;51.564;-1.838;2023-04-06T06:41:49;9.02;;;1.95;;
55879;SDS011;41802;51.564;-1.838;2023-04-06T06:44:17;7.05;;;1.17;;
55879;SDS011;41802;51.564;-1.838;2023-04-06T06:46:45;8.88;;;1.13;;
55879;SDS011;41802;51.564;-1.838;2023-04-06T06:49:12;12.27;;;1.37;;
55879;SDS011;41802;51.564;-1.838;2023-04-06T06:51:42;8.93;;;1.67;;
55879;SDS011;41802;51.564;-1.838;2023-04-06T06:54:09;6.50;;;1.35;;
55879;SDS011;41802;51.564;-1.838;2023-04-06T06:56:37;6.55;;;1.73;;
55879;SDS011;41802;51.564;-1.838;2023-04-06T06:59:05;6.03;;;1.33;;
55879;SDS011;41802;51.564;-1.838;2023-04-06T07:01:33;10.90;;;1.60;;
55879;SDS011;41802;51.564;-1.838;2023-04-06T07:04:01;6.10;;;1.10;;
55879;SDS011;41802;51.564;-1.838;2023-04-06T07:06:29;11.02;;;1.80;;
55879;SDS011;41802;51.564;-1.838;2023-04-06T07:08:58;7.68;;;1.67;;
55879;SDS011;41802;51.564;-1.838;2023-04-06T07:11:26;12.10;;;2.05;;
55879;SDS011;41802;51.564;-1.838;2023-04-06T07:13:54;10.37;;;2.20;;
55879;SDS011;41802;51.564;-1.838;2023-04-06T07:16:21;8.80;;;2.00;;
55879;SDS011;41802;51.564;-1.838;2023-04-06T07:18:49;12.73;;;2.40;;
55879;SDS011;41802;51.564;-1.838;2023-04-06T07:21:17;11.63;;;2.38;;
55879;SDS011;41802;51.564;-1.838;2023-04-06T07:23:45;11.07;;;2.28;;
55879;SDS011;41802;51.564;-1.838;2023-04-06T07:26:16;8.23;;;2.00;;
55879;SDS011;41802;51.564;-1.838;2023-04-06T07:28:43;13.27;;;3.13;;
55879;SDS011;41802;51.564;-1.838;2023-04-06T07:31:11;12.63;;;2.67;;
55879;SDS011;41802;51.564;-1.838;2023-04-06T07:33:39;9.85;;;2.53;;
55879;SDS011;41802;51.564;-1.838;2023-04-06T07:36:06;11.48;;;3.25;;
55879;SDS011;41802;51.564;-1.838;2023-04-06T07:38:34;11.60;;;3.63;;
55879;SDS011;41802;51.564;-1.838;2023-04-06T07:41:02;16.38;;;3.70;;
55879;SDS011;41802;51.564;-1.838;2023-04-06T07:43:32;12.32;;;2.70;;
55879;SDS011;41802;51.564;-1.838;2023-04-06T07:45:59;9.32;;;1.92;;
55879;SDS011;41802;51.564;-1.838;2023-04-06T07:48:27;9.65;;;1.70;;
55879;SDS011;41802;51.564;-1.838;2023-04-06T07:51:00;7.33;;;1.77;;
55879;SDS011;41802;51.564;-1.838;2023-04-06T07:53:29;12.38;;;1.55;;
55879;SDS011;41802;51.564;-1.838;2023-04-06T07:55:58;7.70;;;1.67;;
55879;SDS011;41802;51.564;-1.838;2023-04-06T07:58:25;7.53;;;1.30;;
55879;SDS011;41802;51.564;-1.838;2023-04-06T08:00:54;10.93;;;1.25;;
55879;SDS011;41802;51.564;-1.838;2023-04-06T08:03:24;4.13;;;0.73;;
55879;SDS011;41802;51.564;-1.838;2023-04-06T08:05:52;6.40;;;1.45;;
55879;SDS011;41802;51.564;-1.838;2023-04-06T08:08:20;5.65;;;1.17;;
55879;SDS011;41802;51.564;-1.838;2023-04-06T08:10:49;9.43;;;1.88;;
55879;SDS011;41802;51.564;-1.838;2023-04-06T08:13:16;9.65;;;1.95;;
55879;SDS011;41802;51.564;-1.838;2023-04-06T08:15:44;10.17;;;2.40;;
55879;SDS011;41802;51.564;-1.838;2023-04-06T08:18:13;9.68;;;1.58;;
55879;SDS011;41802;51.564;-1.838;2023-04-06T08:20:41;10.15;;;2.15;;
55879;SDS011;41802;51.564;-1.838;2023-04-06T08:23:08;8.57;;;2.13;;
55879;SDS011;41802;51.564;-1.838;2023-04-06T08:25:37;6.70;;;1.27;;
55879;SDS011;41802;51.564;-1.838;2023-04-06T08:28:05;10.32;;;1.75;;
55879;SDS011;41802;51.564;-1.838;2023-04-06T08:30:32;12.07;;;1.73;;
55879;SDS011;41802;51.564;-1.838;2023-04-06T08:33:00;8.23;;;1.83;;
55879;SDS011;41802;51.564;-1.838;2023-04-06T08:35:29;10.18;;;1.42;;
55879;SDS011;41802;51.564;-1.838;2023-04-06T08:37:57;8.27;;;1.77;;
55879;SDS011;41802;51.564;-1.838;2023-04-06T08:40:25;6.68;;;1.52;;
55879;SDS011;41802;51.564;-1.838;2023-04-06T08:42:54;7.55;;;1.60;;
55879;SDS011;41802;51.564;-1.838;2023-04-06T08:45:22;10.18;;;1.88;;
55879;SDS011;41802;51.564;-1.838;2023-04-06T08:47:51;8.37;;;1.13;;
55879;SDS011;41802;51.564;-1.838;2023-04-06T08:50:19;10.57;;;1.88;;
55879;SDS011;41802;51.564;-1.838;2023-04-06T08:52:49;6.40;;;1.05;;
55879;SDS011;41802;51.564;-1.838;2023-04-06T08:55:17;5.57;;;0.60;;
55879;SDS011;41802;51.564;-1.838;2023-04-06T08:57:44;8.80;;;1.20;;
55879;SDS011;41802;51.564;-1.838;2023-04-06T09:00:13;5.73;;;1.20;;
55879;SDS011;41802;51.564;-1.838;2023-04-06T09:02:43;5.45;;;0.90;;
55879;SDS011;41802;51.564;-1.838;2023-04-06T09:05:12;11.50;;;1.38;;
55879;SDS011;41802;51.564;-1.838;2023-04-06T09:07:40;7.05;;;1.27;;
55879;SDS011;41802;51.564;-1.838;2023-04-06T09:10:10;6.90;;;1.52;;
55879;SDS011;41802;51.564;-1.838;2023-04-06T09:12:37;8.40;;;1.03;;
55879;SDS011;41802;51.564;-1.838;2023-04-06T09:15:06;4.60;;;0.88;;
55879;SDS011;41802;51.564;-1.838;2023-04-06T09:17:46;3.53;;;0.50;;
55879;SDS011;41802;51.564;-1.838;2023-04-06T09:20:14;4.90;;;0.77;;
55879;SDS011;41802;51.564;-1.838;2023-04-06T09:22:49;4.50;;;0.80;;
55879;SDS011;41802;51.564;-1.838;2023-04-06T09:25:19;4.07;;;0.73;;
55879;SDS011;41802;51.564;-1.838;2023-04-06T09:27:57;6.60;;;0.98;;
55879;SDS011;41802;51.564;-1.838;2023-04-06T09:30:25;5.43;;;1.00;;
55879;SDS011;41802;51.564;-1.838;2023-04-06T09:32:53;3.08;;;0.40;;
55879;SDS011;41802;51.564;-1.838;2023-04-06T09:35:21;4.65;;;0.80;;
55879;SDS011;41802;51.564;-1.838;2023-04-06T09:37:50;4.33;;;0.73;;
55879;SDS011;41802;51.564;-1.838;2023-04-06T09:40:19;4.63;;;0.63;;
55879;SDS011;41802;51.564;-1.838;2023-04-06T09:42:48;2.90;;;0.45;;
55879;SDS011;41802;51.564;-1.838;2023-04-06T09:45:18;5.63;;;0.93;;
55879;SDS011;41802;51.564;-1.838;2023-04-06T09:47:47;3.40;;;0.43;;
55879;SDS011;41802;51.564;-1.838;2023-04-06T09:50:16;3.77;;;0.60;;
55879;SDS011;41802;51.564;-1.838;2023-04-06T09:52:46;5.30;;;0.60;;
55879;SDS011;41802;51.564;-1.838;2023-04-06T09:55:17;4.10;;;0.40;;
55879;SDS011;41802;51.564;-1.838;2023-04-06T09:58:10;4.78;;;0.95;;
55879;SDS011;41802;51.564;-1.838;2023-04-06T10:00:42;4.70;;;0.68;;
55879;SDS011;41802;51.564;-1.838;2023-04-06T10:03:12;4.20;;;0.50;;
55879;SDS011;41802;51.564;-1.838;2023-04-06T10:05:43;2.78;;;0.40;;
55879;SDS011;41802;51.564;-1.838;2023-04-06T10:08:13;3.15;;;0.30;;
55879;SDS011;41802;51.564;-1.838;2023-04-06T10:10:42;5.85;;;0.70;;
55879;SDS011;41802;51.564;-1.838;2023-04-06T10:13:12;2.85;;;0.50;;
55879;SDS011;41802;51.564;-1.838;2023-04-06T10:15:40;3.23;;;0.63;;
55879;SDS011;41802;51.564;-1.838;2023-04-06T10:18:09;4.45;;;0.50;;
55879;SDS011;41802;51.564;-1.838;2023-04-06T10:20:38;2.78;;;0.52;;
55879;SDS011;41802;51.564;-1.838;2023-04-06T10:23:08;3.05;;;0.50;;
55879;SDS011;41802;51.564;-1.838;2023-04-06T10:25:37;4.50;;;0.52;;
55879;SDS011;41802;51.564;-1.838;2023-04-06T10:28:06;4.70;;;0.60;;
55879;SDS011;41802;51.564;-1.838;2023-04-06T10:30:37;2.67;;;0.40;;
55879;SDS011;41802;51.564;-1.838;2023-04-06T10:33:16;4.22;;;0.40;;
55879;SDS011;41802;51.564;-1.838;2023-04-06T10:35:44;6.97;;;0.73;;
55879;SDS011;41802;51.564;-1.838;2023-04-06T10:38:12;3.43;;;0.50;;
55879;SDS011;41802;51.564;-1.838;2023-04-06T10:40:41;3.47;;;0.65;;
55879;SDS011;41802;51.564;-1.838;2023-04-06T10:43:09;2.17;;;0.40;;
55879;SDS011;41802;51.564;-1.838;2023-04-06T10:45:39;3.20;;;0.30;;
55879;SDS011;41802;51.564;-1.838;2023-04-06T10:48:13;4.85;;;0.65;;
55879;SDS011;41802;51.564;-1.838;2023-04-06T10:50:43;3.03;;;0.30;;
55879;SDS011;41802;51.564;-1.838;2023-04-06T10:53:11;3.05;;;0.50;;
55879;SDS011;41802;51.564;-1.838;2023-04-06T10:55:39;5.13;;;0.82;;
55879;SDS011;41802;51.564;-1.838;2023-04-06T10:58:08;2.97;;;0.50;;
55879;SDS011;41802;51.564;-1.838;2023-04-06T11:00:35;2.67;;;0.55;;
55879;SDS011;41802;51.564;-1.838;2023-04-06T11:03:14;3.30;;;0.50;;
55879;SDS011;41802;51.564;-1.838;2023-04-06T11:05:43;4.07;;;0.85;;
55879;SDS011;41802;51.564;-1.838;2023-04-06T11:08:21;4.78;;;0.50;;
55879;SDS011;41802;51.564;-1.838;2023-04-06T11:10:49;3.07;;;0.60;;
55879;SDS011;41802;51.564;-1.838;2023-04-06T11:13:17;2.70;;;0.45;;
55879;SDS011;41802;51.564;-1.838;2023-04-06T11:15:45;4.55;;;0.52;;
55879;SDS011;41802;51.564;-1.838;2023-04-06T11:18:16;3.97;;;0.52;;
55879;SDS011;41802;51.564;-1.838;2023-04-06T11:20:47;4.60;;;0.52;;
55879;SDS011;41802;51.564;-1.838;2023-04-06T11:23:21;3.43;;;0.50;;
55879;SDS011;41802;51.564;-1.838;2023-04-06T11:25:50;3.53;;;0.68;;
55879;SDS011;41802;51.564;-1.838;2023-04-06T11:28:19;3.80;;;0.52;;
55879;SDS011;41802;51.564;-1.838;2023-04-06T11:30:47;4.05;;;0.80;;
55879;SDS011;41802;51.564;-1.838;2023-04-06T11:33:21;2.80;;;0.40;;
55879;SDS011;41802;51.564;-1.838;2023-04-06T11:35:49;2.43;;;0.40;;
55879;SDS011;41802;51.564;-1.838;2023-04-06T11:38:17;2.00;;;0.30;;
55879;SDS011;41802;51.564;-1.838;2023-04-06T11:40:45;2.33;;;0.40;;
55879;SDS011;41802;51.564;-1.838;2023-04-06T11:43:13;2.83;;;0.30;;
55879;SDS011;41802;51.564;-1.838;2023-04-06T11:45:42;3.03;;;0.40;;
55879;SDS011;41802;51.564;-1.838;2023-04-06T11:48:17;4.43;;;0.37;;
55879;SDS011;41802;51.564;-1.838;2023-04-06T11:50:47;3.15;;;0.40;;
55879;SDS011;41802;51.564;-1.838;2023-04-06T11:53:15;4.28;;;0.50;;
55879;SDS011;41802;51.564;-1.838;2023-04-06T11:55:43;5.80;;;0.70;;
55879;SDS011;41802;51.564;-1.838;2023-04-06T11:58:13;2.35;;;0.32;;
55879;SDS011;41802;51.564;-1.838;2023-04-06T12:00:43;2.90;;;0.30;;
55879;SDS011;41802;51.564;-1.838;2023-04-06T12:03:13;2.83;;;0.50;;
55879;SDS011;41802;51.564;-1.838;2023-04-06T12:05:43;3.63;;;0.32;;
55879;SDS011;41802;51.564;-1.838;2023-04-06T12:08:12;2.45;;;0.45;;
55879;SDS011;41802;51.564;-1.838;2023-04-06T12:10:40;4.85;;;0.60;;
55879;SDS011;41802;51.564;-1.838;2023-04-06T12:13:09;6.17;;;0.60;;
55879;SDS011;41802;51.564;-1.838;2023-04-06T12:15:37;2.85;;;0.40;;
55879;SDS011;41802;51.564;-1.838;2023-04-06T12:18:05;2.28;;;0.30;;
55879;SDS011;41802;51.564;-1.838;2023-04-06T12:20:33;3.55;;;0.30;;
55879;SDS011;41802;51.564;-1.838;2023-04-06T12:23:00;1.98;;;0.30;;
55879;SDS011;41802;51.564;-1.838;2023-04-06T12:25:29;2.80;;;0.37;;
55879;SDS011;41802;51.564;-1.838;2023-04-06T12:27:57;1.98;;;0.28;;
55879;SDS011;41802;51.564;-1.838;2023-04-06T12:30:25;2.13;;;0.20;;
55879;SDS011;41802;51.564;-1.838;2023-04-06T12:32:53;2.10;;;0.30;;
55879;SDS011;41802;51.564;-1.838;2023-04-06T12:35:21;1.90;;;0.30;;
55879;SDS011;41802;51.564;-1.838;2023-04-06T12:37:49;1.83;;;0.30;;
55879;SDS011;41802;51.564;-1.838;2023-04-06T12:40:17;1.90;;;0.20;;
55879;SDS011;41802;51.564;-1.838;2023-04-06T12:42:46;1.60;;;0.20;;
55879;SDS011;41802;51.564;-1.838;2023-04-06T12:45:14;2.92;;;0.57;;
55879;SDS011;41802;51.564;-1.838;2023-04-06T12:47:42;2.03;;;0.30;;
55879;SDS011;41802;51.564;-1.838;2023-04-06T12:50:10;2.42;;;0.30;;
55879;SDS011;41802;51.564;-1.838;2023-04-06T12:52:37;1.85;;;0.30;;
55879;SDS011;41802;51.564;-1.838;2023-04-06T12:55:05;2.30;;;0.40;;
55879;SDS011;41802;51.564;-1.838;2023-04-06T12:57:34;3.55;;;0.70;;
55879;SDS011;41802;51.564;-1.838;2023-04-06T13:00:05;3.60;;;0.43;;
55879;SDS011;41802;51.564;-1.838;2023-04-06T13:02:34;4.43;;;0.45;;
55879;SDS011;41802;51.564;-1.838;2023-04-06T13:05:03;4.05;;;0.45;;
55879;SDS011;41802;51.564;-1.838;2023-04-06T13:07:31;3.47;;;0.50;;
55879;SDS011;41802;51.564;-1.838;2023-04-06T13:09:58;3.88;;;0.50;;
55879;SDS011;41802;51.564;-1.838;2023-04-06T13:12:26;5.10;;;0.63;;
55879;SDS011;41802;51.564;-1.838;2023-04-06T13:14:54;4.18;;;0.80;;
55879;SDS011;41802;51.564;-1.838;2023-04-06T13:17:23;4.53;;;0.40;;
55879;SDS011;41802;51.564;-1.838;2023-04-06T13:19:51;4.80;;;0.40;;
55879;SDS011;41802;51.564;-1.838;2023-04-06T13:22:18;2.10;;;0.32;;
55879;SDS011;41802;51.564;-1.838;2023-04-06T13:24:46;2.42;;;0.40;;
55879;SDS011;41802;51.564;-1.838;2023-04-06T13:27:15;2.40;;;0.30;;
55879;SDS011;41802;51.564;-1.838;2023-04-06T13:29:43;2.13;;;0.30;;
55879;SDS011;41802;51.564;-1.838;2023-04-06T13:32:12;2.17;;;0.30;;
55879;SDS011;41802;51.564;-1.838;2023-04-06T13:34:42;1.73;;;0.25;;
55879;SDS011;41802;51.564;-1.838;2023-04-06T13:37:11;3.20;;;0.30;;
55879;SDS011;41802;51.564;-1.838;2023-04-06T13:39:39;5.73;;;0.20;;
55879;SDS011;41802;51.564;-1.838;2023-04-06T13:42:07;3.15;;;0.20;;
55879;SDS011;41802;51.564;-1.838;2023-04-06T13:44:36;1.58;;;0.25;;
55879;SDS011;41802;51.564;-1.838;2023-04-06T13:47:04;1.67;;;0.30;;
55879;SDS011;41802;51.564;-1.838;2023-04-06T13:49:32;1.40;;;0.28;;
55879;SDS011;41802;51.564;-1.838;2023-04-06T13:52:02;3.87;;;0.30;;
55879;SDS011;41802;51.564;-1.838;2023-04-06T13:54:30;1.48;;;0.22;;
55879;SDS011;41802;51.564;-1.838;2023-04-06T13:56:58;2.13;;;0.30;;
55879;SDS011;41802;51.564;-1.838;2023-04-06T13:59:31;2.58;;;0.25;;
55879;SDS011;41802;51.564;-1.838;2023-04-06T14:01:59;1.58;;;0.30;;
55879;SDS011;41802;51.564;-1.838;2023-04-06T14:04:27;2.80;;;0.30;;
55879;SDS011;41802;51.564;-1.838;2023-04-06T14:06:55;2.05;;;0.30;;
55879;SDS011;41802;51.564;-1.838;2023-04-06T14:09:24;1.48;;;0.32;;
55879;SDS011;41802;51.564;-1.838;2023-04-06T14:11:52;1.35;;;0.20;;
55879;SDS011;41802;51.564;-1.838;2023-04-06T14:14:19;1.50;;;0.20;;
55879;SDS011;41802;51.564;-1.838;2023-04-06T14:16:47;2.57;;;0.30;;
55879;SDS011;41802;51.564;-1.838;2023-04-06T14:19:16;1.90;;;0.30;;
55879;SDS011;41802;51.564;-1.838;2023-04-06T14:21:44;1.55;;;0.20;;
55879;SDS011;41802;51.564;-1.838;2023-04-06T14:24:12;2.28;;;0.35;;
55879;SDS011;41802;51.564;-1.838;2023-04-06T14:26:42;1.77;;;0.30;;
55879;SDS011;41802;51.564;-1.838;2023-04-06T14:29:10;2.13;;;0.47;;
55879;SDS011;41802;51.564;-1.838;2023-04-06T14:31:38;2.05;;;0.30;;
55879;SDS011;41802;51.564;-1.838;2023-04-06T14:34:06;1.88;;;0.30;;
55879;SDS011;41802;51.564;-1.838;2023-04-06T14:36:33;2.13;;;0.50;;
55879;SDS011;41802;51.564;-1.838;2023-04-06T14:39:04;2.97;;;0.40;;